createdAt,value
2023-05-05T00:00:00.651Z,55.17
2023-05-05T00:02:32.521Z,55.34
2023-05-05T00:05:04.229Z,54.85
2023-05-05T00:07:37.321Z,55.71
2023-05-05T00:10:10.543Z,55.89
2023-05-05T00:12:42.191Z,55.65
2023-05-05T00:15:14.394Z,55.65
2023-05-05T00:17:46.345Z,55.90
2023-05-05T00:20:18.207Z,56.50
2023-05-05T00:22:51.366Z,56.56
2023-05-05T00:25:23.279Z,56.96
2023-05-05T00:27:55.282Z,56.31
2023-05-05T00:30:27.189Z,56.39
2023-05-05T00:32:59.268Z,56.65
2023-05-05T00:35:31.065Z,57.10
2023-05-05T00:38:04.136Z,57.91
2023-05-05T00:40:35.999Z,57.83
2023-05-05T00:43:08.195Z,57.23
2023-05-05T00:45:42.763Z,57.89
2023-05-05T00:48:14.952Z,57.80
2023-05-05T00:50:48.202Z,57.95
2023-05-05T00:53:21.283Z,57.93
2023-05-05T00:55:53.556Z,57.53
2023-05-05T00:58:25.610Z,58.14
2023-05-05T01:00:57.402Z,58.19
2023-05-05T01:03:29.334Z,59.13
2023-05-05T01:06:11.113Z,58.62
2023-05-05T01:08:56.564Z,58.60
2023-05-05T01:11:40.725Z,59.18
2023-05-05T01:14:23.993Z,58.62
2023-05-05T01:17:07.976Z,59.25
2023-05-05T01:20:15.579Z,59.48
2023-05-05T01:22:54.908Z,59.73
2023-05-05T01:25:50.388Z,59.88
2023-05-05T01:28:38.223Z,60.13
2023-05-05T01:31:28.037Z,60.14
2023-05-05T01:34:08.426Z,60.14
2023-05-05T01:36:45.532Z,60.63
2023-05-05T01:39:21.862Z,60.66
2023-05-05T01:42:03.600Z,61.29
2023-05-05T01:44:37.343Z,61.47
2023-05-05T01:47:10.978Z,61.53
2023-05-05T01:49:47.205Z,62.05
2023-05-05T01:52:21.551Z,61.75
2023-05-05T01:54:58.464Z,62.52
2023-05-05T01:57:34.121Z,62.48
2023-05-05T02:00:09.813Z,62.14
2023-05-05T02:02:46.326Z,63.01
2023-05-05T02:05:23.539Z,63.04
2023-05-05T02:07:59.963Z,62.87
2023-05-05T02:10:33.451Z,63.67
2023-05-05T02:13:06.768Z,63.54
2023-05-05T02:15:41.412Z,63.35
2023-05-05T02:18:15.157Z,62.86
2023-05-05T02:20:49.605Z,63.51
2023-05-05T02:23:22.080Z,63.50
2023-05-05T02:26:00.801Z,63.78
2023-05-05T02:28:48.136Z,63.62
2023-05-05T02:31:24.567Z,64.71
2023-05-05T02:34:01.453Z,64.62
2023-05-05T02:36:38.542Z,64.71
2023-05-05T02:39:20.766Z,64.67
2023-05-05T02:41:56.192Z,64.24
2023-05-05T02:44:30.060Z,64.27
2023-05-05T02:47:03.810Z,64.51
2023-05-05T02:49:35.945Z,64.48
2023-05-05T02:52:09.163Z,65.02
2023-05-05T02:54:41.215Z,65.09
2023-05-05T02:57:20.897Z,65.39
2023-05-05T03:00:01.968Z,65.76
2023-05-05T03:02:44.436Z,65.94
2023-05-05T03:05:23.258Z,66.06
2023-05-05T03:08:03.163Z,66.13
2023-05-05T03:11:00.021Z,65.62
2023-05-05T03:13:35.484Z,65.89
2023-05-05T03:16:10.026Z,65.71
2023-05-05T03:18:45.362Z,65.50
2023-05-05T03:21:17.353Z,65.67
2023-05-05T03:23:51.140Z,65.62
2023-05-05T03:26:22.822Z,66.06
2023-05-05T03:28:54.728Z,66.00
2023-05-05T03:31:28.283Z,66.03
2023-05-05T03:33:59.941Z,66.28
2023-05-05T03:36:32.946Z,66.68
2023-05-05T03:39:06.232Z,66.59
2023-05-05T03:41:38.077Z,66.65
2023-05-05T03:44:09.869Z,67.35
2023-05-05T03:46:41.684Z,67.17
2023-05-05T03:49:13.591Z,67.24
2023-05-05T03:51:45.558Z,67.35
2023-05-05T03:54:19.241Z,67.44
2023-05-05T03:56:51.074Z,67.24
2023-05-05T03:59:23.020Z,67.26
2023-05-05T04:01:54.859Z,67.75
2023-05-05T04:04:26.860Z,68.25
2023-05-05T04:06:58.560Z,67.66
2023-05-05T04:09:31.788Z,68.16
2023-05-05T04:12:03.578Z,67.60
2023-05-05T04:14:35.813Z,67.51
2023-05-05T04:17:07.524Z,67.70
2023-05-05T04:19:39.337Z,67.57
2023-05-05T04:22:11.372Z,68.01
2023-05-05T04:24:44.298Z,68.65
2023-05-05T04:27:16.379Z,69.14
2023-05-05T04:29:48.150Z,69.24
2023-05-05T04:32:20.014Z,68.75
2023-05-05T04:34:51.816Z,69.25
2023-05-05T04:37:23.580Z,68.79
2023-05-05T04:39:56.982Z,68.98
2023-05-05T04:42:28.847Z,69.29
2023-05-05T04:45:00.628Z,69.40
2023-05-05T04:47:32.555Z,69.26
2023-05-05T04:50:04.415Z,69.36
2023-05-05T04:52:36.247Z,69.62
2023-05-05T04:55:11.608Z,69.43
2023-05-05T04:57:43.373Z,69.56
2023-05-05T05:00:17.664Z,69.74
2023-05-05T05:02:49.621Z,69.44
2023-05-05T05:05:21.546Z,70.41
2023-05-05T05:07:53.253Z,70.47
2023-05-05T05:10:26.424Z,70.12
2023-05-05T05:12:58.371Z,70.52
2023-05-05T05:15:31.122Z,70.07
2023-05-05T05:18:03.013Z,69.94
2023-05-05T05:20:35.389Z,70.50
2023-05-05T05:23:07.189Z,70.60
2023-05-05T05:25:40.370Z,70.62
2023-05-05T05:28:12.284Z,70.92
2023-05-05T05:30:44.067Z,70.92
2023-05-05T05:33:15.914Z,71.06
2023-05-05T05:35:47.820Z,70.77
2023-05-05T05:38:19.712Z,70.24
2023-05-05T05:40:54.629Z,70.36
2023-05-05T05:43:26.183Z,69.63
2023-05-05T05:45:58.064Z,69.30
2023-05-05T05:48:29.965Z,69.20
2023-05-05T05:51:02.440Z,69.17
2023-05-05T05:53:35.929Z,69.33
2023-05-05T05:56:11.051Z,69.20
2023-05-05T05:58:42.914Z,69.00
2023-05-05T06:01:14.807Z,69.15
2023-05-05T06:03:46.735Z,68.96
2023-05-05T06:06:18.407Z,68.45
2023-05-05T06:08:51.813Z,68.57
2023-05-05T06:11:25.078Z,68.48
2023-05-05T06:13:56.884Z,68.79
2023-05-05T06:16:30.333Z,68.71
2023-05-05T06:19:02.196Z,68.45
2023-05-05T06:21:34.126Z,68.33
2023-05-05T06:24:06.017Z,68.46
2023-05-05T06:26:39.207Z,67.85
2023-05-05T06:29:12.348Z,67.19
2023-05-05T06:31:46.230Z,67.21
2023-05-05T06:34:18.199Z,68.97
2023-05-05T06:36:50.158Z,67.79
2023-05-05T06:39:21.762Z,66.73
2023-05-05T06:41:54.835Z,66.69
2023-05-05T06:44:28.223Z,66.13
2023-05-05T06:47:00.681Z,65.56
2023-05-05T06:49:32.645Z,65.44
2023-05-05T06:52:04.619Z,66.69
2023-05-05T06:54:36.424Z,65.79
2023-05-05T06:57:09.411Z,64.64
2023-05-05T06:59:42.637Z,64.70
2023-05-05T07:02:14.526Z,64.50
2023-05-05T07:04:46.545Z,64.44
2023-05-05T07:07:18.395Z,64.62
2023-05-05T07:09:50.219Z,65.51
2023-05-05T07:12:23.288Z,64.45
2023-05-05T07:14:56.807Z,64.78
2023-05-05T07:17:28.438Z,64.93
2023-05-05T07:20:00.254Z,64.96
2023-05-05T07:22:32.187Z,64.23
2023-05-05T07:25:05.529Z,64.44
2023-05-05T07:27:39.972Z,64.61
2023-05-05T07:30:18.501Z,63.46
2023-05-05T07:32:51.084Z,63.71
2023-05-05T07:35:23.081Z,63.52
2023-05-05T07:37:56.495Z,63.38
2023-05-05T07:40:28.244Z,63.46
2023-05-05T07:43:01.517Z,64.86
2023-05-05T07:45:33.963Z,64.32
2023-05-05T07:48:05.958Z,63.38
2023-05-05T07:50:39.617Z,63.10
2023-05-05T07:53:14.958Z,62.08
2023-05-05T07:55:46.907Z,62.17
2023-05-05T07:58:19.939Z,62.38
2023-05-05T08:00:53.213Z,62.26
2023-05-05T08:03:25.354Z,60.16
2023-05-05T08:06:06.727Z,61.32
2023-05-05T08:08:39.589Z,61.21
2023-05-05T08:11:11.501Z,60.88
2023-05-05T08:13:44.456Z,61.11
2023-05-05T08:16:16.766Z,60.42
2023-05-05T08:18:50.215Z,60.74
2023-05-05T08:21:22.384Z,60.74
2023-05-05T08:23:53.938Z,59.83
2023-05-05T08:26:25.920Z,59.52
2023-05-05T08:29:00.787Z,60.52
2023-05-05T08:31:37.794Z,59.42
2023-05-05T08:34:09.928Z,58.60
2023-05-05T08:36:41.741Z,58.44
2023-05-05T08:39:13.572Z,59.78
2023-05-05T08:41:45.863Z,58.70
2023-05-05T08:44:18.942Z,58.99
2023-05-05T08:46:52.286Z,58.26
2023-05-05T08:49:25.370Z,57.45
2023-05-05T08:52:00.362Z,57.87
2023-05-05T08:54:35.883Z,58.29
2023-05-05T08:57:11.882Z,56.05
2023-05-05T08:59:46.008Z,56.17
2023-05-05T09:02:19.347Z,55.70
2023-05-05T09:04:51.527Z,57.59
2023-05-05T09:07:25.618Z,57.02
2023-05-05T09:09:59.697Z,56.76
2023-05-05T09:12:35.544Z,55.65
2023-05-05T09:15:11.614Z,56.18
2023-05-05T09:17:45.539Z,56.06
2023-05-05T09:20:18.503Z,56.38
2023-05-05T09:22:53.176Z,56.14
2023-05-05T09:25:25.090Z,57.39
2023-05-05T09:27:56.895Z,56.34
2023-05-05T09:30:31.383Z,54.30
2023-05-05T09:33:05.547Z,54.18
2023-05-05T09:35:54.427Z,54.74
2023-05-05T09:38:27.997Z,56.00
2023-05-05T09:40:59.814Z,53.28
2023-05-05T09:43:31.663Z,52.92
2023-05-05T09:46:12.129Z,52.73
2023-05-05T09:48:44.001Z,51.27
2023-05-05T09:51:16.128Z,53.23
2023-05-05T09:53:47.863Z,51.80
2023-05-05T09:56:19.867Z,51.19
2023-05-05T09:58:51.441Z,51.09
2023-05-05T10:01:28.449Z,52.02
2023-05-05T10:04:00.417Z,50.87
2023-05-05T10:06:47.427Z,52.31
2023-05-05T10:09:20.979Z,50.49
2023-05-05T10:11:57.284Z,50.90
2023-05-05T10:14:32.735Z,52.17
2023-05-05T10:17:08.074Z,51.75
2023-05-05T10:19:42.878Z,51.23
2023-05-05T10:22:15.067Z,50.15
2023-05-05T10:24:52.363Z,49.69
2023-05-05T10:27:29.245Z,49.40
2023-05-05T10:30:12.997Z,49.49
2023-05-05T10:33:07.878Z,47.19
2023-05-05T10:35:51.593Z,47.82
2023-05-05T10:38:25.535Z,48.91
2023-05-05T10:41:01.794Z,48.82
2023-05-05T10:43:34.740Z,48.16
2023-05-05T10:46:07.358Z,49.19
2023-05-05T10:48:48.267Z,47.43
2023-05-05T10:51:39.340Z,46.47
2023-05-05T10:54:21.938Z,48.51
2023-05-05T10:56:55.142Z,45.78
2023-05-05T10:59:48.112Z,47.59
2023-05-05T11:02:28.812Z,47.42
2023-05-05T11:05:21.291Z,46.04
2023-05-05T11:07:54.640Z,45.84
2023-05-05T11:10:26.510Z,46.70
2023-05-05T11:13:21.946Z,45.04
2023-05-05T11:15:55.384Z,47.24
2023-05-05T11:18:38.211Z,47.13
2023-05-05T11:21:18.349Z,47.96
2023-05-05T11:24:28.539Z,48.48
2023-05-05T11:27:01.307Z,48.34
2023-05-05T11:30:09.574Z,48.36
2023-05-05T11:32:41.481Z,48.40
2023-05-05T11:35:14.240Z,48.62
2023-05-05T11:38:01.900Z,49.15
2023-05-05T11:40:38.484Z,47.52
2023-05-05T11:43:12.409Z,47.18
2023-05-05T11:45:44.221Z,48.40
2023-05-05T11:48:30.770Z,47.93
2023-05-05T11:51:05.378Z,48.49
2023-05-05T11:53:42.588Z,49.24
2023-05-05T11:56:19.256Z,48.50
2023-05-05T11:59:05.732Z,47.21
2023-05-05T12:01:40.271Z,47.66
2023-05-05T12:04:15.254Z,46.81
2023-05-05T12:06:48.961Z,47.94
2023-05-05T12:09:24.304Z,46.60
2023-05-05T12:12:00.483Z,48.29
2023-05-05T12:14:34.409Z,48.00
2023-05-05T12:17:09.425Z,47.79
2023-05-05T12:19:48.147Z,47.69
2023-05-05T12:22:24.659Z,47.38
2023-05-05T12:25:03.091Z,46.96
2023-05-05T12:27:36.263Z,46.66
2023-05-05T12:30:19.240Z,47.57
2023-05-05T12:32:51.077Z,47.52
2023-05-05T12:35:22.823Z,46.03
2023-05-05T12:37:54.748Z,47.54
2023-05-05T12:40:49.606Z,48.62
2023-05-05T12:43:35.517Z,49.63
2023-05-05T12:46:07.102Z,48.39
2023-05-05T12:48:44.453Z,47.17
2023-05-05T12:51:23.034Z,48.08
2023-05-05T12:54:07.443Z,47.62
2023-05-05T12:56:44.055Z,45.90
2023-05-05T12:59:32.813Z,45.71
2023-05-05T13:02:05.101Z,47.92
2023-05-05T13:04:48.468Z,46.48
2023-05-05T13:07:21.695Z,44.81
2023-05-05T13:10:10.488Z,46.31
2023-05-05T13:12:43.452Z,47.42
2023-05-05T13:15:17.729Z,46.96
2023-05-05T13:17:49.614Z,45.64
2023-05-05T13:20:21.384Z,45.81
2023-05-05T13:22:54.742Z,46.00
2023-05-05T13:25:27.990Z,46.14
2023-05-05T13:28:00.957Z,45.52
2023-05-05T13:30:34.246Z,45.06
2023-05-05T13:33:06.268Z,45.20
2023-05-05T13:35:39.585Z,45.24
2023-05-05T13:38:11.362Z,45.40
2023-05-05T13:40:43.183Z,44.56
2023-05-05T13:43:16.174Z,44.99
2023-05-05T13:45:48.107Z,45.03
2023-05-05T13:48:21.323Z,42.99
2023-05-05T13:50:54.606Z,43.08
2023-05-05T13:53:27.909Z,42.71
2023-05-05T13:56:00.146Z,42.95
2023-05-05T13:58:34.195Z,43.44
2023-05-05T14:01:09.520Z,42.88
2023-05-05T14:03:41.205Z,44.04
2023-05-05T14:06:13.565Z,43.87
2023-05-05T14:08:46.084Z,43.04
2023-05-05T14:11:18.217Z,42.90
2023-05-05T14:13:51.922Z,43.97
2023-05-05T14:16:23.600Z,43.32
2023-05-05T14:18:57.628Z,43.40
2023-05-05T14:21:29.308Z,44.17
2023-05-05T14:24:01.160Z,44.10
2023-05-05T14:26:33.041Z,44.77
2023-05-05T14:29:06.198Z,44.33
2023-05-05T14:31:39.767Z,44.68
2023-05-05T14:34:11.714Z,44.69
2023-05-05T14:36:43.363Z,44.61
2023-05-05T14:39:16.654Z,45.03
2023-05-05T14:41:48.572Z,45.30
2023-05-05T14:44:21.811Z,44.34
2023-05-05T14:46:53.587Z,45.02
2023-05-05T14:49:25.540Z,44.41
2023-05-05T14:51:58.934Z,45.10
2023-05-05T14:54:30.778Z,45.58
2023-05-05T14:57:02.860Z,45.94
2023-05-05T14:59:36.121Z,46.04
2023-05-05T15:02:08.100Z,46.30
2023-05-05T15:04:39.924Z,46.06
2023-05-05T15:07:11.893Z,46.54
2023-05-05T15:09:43.746Z,45.87
2023-05-05T15:12:15.711Z,46.45
2023-05-05T15:14:48.624Z,47.13
2023-05-05T15:17:20.528Z,46.21
2023-05-05T15:19:52.217Z,46.38
2023-05-05T15:22:24.035Z,46.10
2023-05-05T15:24:55.839Z,46.97
2023-05-05T15:27:27.945Z,46.60
2023-05-05T15:30:01.176Z,47.05
2023-05-05T15:32:35.062Z,47.40
2023-05-05T15:35:06.962Z,47.18
2023-05-05T15:37:39.098Z,46.77
2023-05-05T15:40:13.458Z,47.38
2023-05-05T15:42:45.770Z,47.46
2023-05-05T15:45:18.868Z,47.42
2023-05-05T15:47:51.010Z,47.75
2023-05-05T15:50:23.322Z,48.35
2023-05-05T15:52:56.778Z,49.10
2023-05-05T15:55:31.257Z,47.90
2023-05-05T15:58:03.051Z,48.39
2023-05-05T16:00:35.961Z,48.86
2023-05-05T16:03:07.977Z,49.69
2023-05-05T16:05:41.699Z,49.81
2023-05-05T16:08:15.031Z,50.87
2023-05-05T16:10:46.850Z,51.85
2023-05-05T16:13:18.733Z,52.65
2023-05-05T16:15:51.796Z,54.65
2023-05-05T16:18:23.714Z,55.53
2023-05-05T16:20:55.583Z,56.40
2023-05-05T16:23:27.402Z,56.30
2023-05-05T16:26:00.979Z,58.05
2023-05-05T16:28:34.179Z,58.04
2023-05-05T16:31:09.423Z,58.82
2023-05-05T16:33:43.744Z,59.36
2023-05-05T16:36:17.810Z,59.81
2023-05-05T16:38:50.851Z,60.50
2023-05-05T16:41:23.374Z,61.40
2023-05-05T16:43:55.424Z,62.00
2023-05-05T16:46:28.577Z,62.85
2023-05-05T16:49:00.492Z,64.86
2023-05-05T16:51:32.409Z,65.63
2023-05-05T16:54:04.331Z,67.75
2023-05-05T16:56:36.728Z,67.73
2023-05-05T16:59:08.596Z,67.72
2023-05-05T17:01:43.330Z,69.21
2023-05-05T17:04:15.120Z,70.54
2023-05-05T17:06:48.305Z,70.83
2023-05-05T17:09:24.688Z,71.15
2023-05-05T17:11:56.571Z,71.19
2023-05-05T17:14:28.456Z,73.53
2023-05-05T17:17:01.504Z,72.28
2023-05-05T17:19:33.384Z,73.96
2023-05-05T17:22:06.678Z,73.07
2023-05-05T17:24:39.923Z,73.59
2023-05-05T17:27:12.713Z,73.80
2023-05-05T17:29:44.634Z,73.74
2023-05-05T17:32:18.293Z,72.39
2023-05-05T17:34:50.142Z,72.54
2023-05-05T17:37:22.076Z,72.25
2023-05-05T17:39:53.879Z,74.16
2023-05-05T17:42:27.019Z,74.22
2023-05-05T17:44:58.603Z,74.52
2023-05-05T17:47:31.903Z,74.78
2023-05-05T17:50:03.609Z,75.66
2023-05-05T17:52:35.472Z,75.93
2023-05-05T17:55:07.749Z,74.77
2023-05-05T17:57:39.915Z,75.22
2023-05-05T18:00:13.710Z,75.33
2023-05-05T18:02:46.749Z,76.27
2023-05-05T18:05:19.010Z,75.75
2023-05-05T18:07:50.877Z,75.91
2023-05-05T18:10:24.042Z,76.07
2023-05-05T18:12:55.852Z,77.60
2023-05-05T18:15:29.727Z,77.45
2023-05-05T18:18:03.458Z,77.33
2023-05-05T18:20:36.868Z,77.45
2023-05-05T18:23:08.764Z,77.74
2023-05-05T18:25:41.458Z,78.50
2023-05-05T18:28:13.312Z,77.35
2023-05-05T18:30:45.280Z,76.75
2023-05-05T18:33:18.303Z,78.49
2023-05-05T18:35:50.144Z,78.12
2023-05-05T18:38:22.221Z,77.45
2023-05-05T18:40:54.008Z,77.43
2023-05-05T18:43:25.838Z,78.08
2023-05-05T18:45:57.833Z,77.98
2023-05-05T18:48:31.040Z,77.62
2023-05-05T18:51:06.974Z,78.90
2023-05-05T18:53:39.266Z,79.72
2023-05-05T18:56:11.022Z,78.82
2023-05-05T18:58:42.896Z,80.01
2023-05-05T19:01:14.816Z,79.77
2023-05-05T19:03:51.419Z,79.21
2023-05-05T19:06:23.539Z,79.71
2023-05-05T19:08:55.413Z,79.50
2023-05-05T19:11:27.298Z,79.28
2023-05-05T19:13:59.230Z,80.33
2023-05-05T19:16:31.178Z,79.12
2023-05-05T19:19:04.372Z,79.51
2023-05-05T19:21:36.323Z,79.33
2023-05-05T19:24:09.609Z,79.71
2023-05-05T19:26:41.398Z,79.80
2023-05-05T19:29:13.314Z,80.03
2023-05-05T19:31:46.718Z,78.57
2023-05-05T19:34:19.702Z,77.79
2023-05-05T19:36:51.619Z,78.56
2023-05-05T19:39:23.436Z,78.98
2023-05-05T19:41:55.329Z,79.51
2023-05-05T19:44:27.067Z,78.74
2023-05-05T19:46:59.011Z,78.62
2023-05-05T19:49:32.008Z,79.10
2023-05-05T19:52:03.928Z,79.41
2023-05-05T19:54:36.079Z,79.04
2023-05-05T19:57:07.701Z,79.80
2023-05-05T19:59:39.596Z,78.08
2023-05-05T20:02:12.161Z,78.98
2023-05-05T20:04:45.956Z,79.65
2023-05-05T20:07:17.890Z,78.80
2023-05-05T20:09:49.874Z,79.30
2023-05-05T20:12:23.061Z,79.46
2023-05-05T20:14:54.952Z,80.79
2023-05-05T20:17:26.846Z,79.44
2023-05-05T20:20:00.062Z,79.41
2023-05-05T20:22:31.978Z,78.92
2023-05-05T20:25:03.984Z,79.02
2023-05-05T20:27:36.143Z,78.95
2023-05-05T20:30:10.764Z,79.36
2023-05-05T20:32:43.462Z,78.68
2023-05-05T20:35:16.751Z,79.30
2023-05-05T20:37:48.745Z,79.29
2023-05-05T20:40:20.732Z,78.96
2023-05-05T20:42:52.362Z,79.57
2023-05-05T20:45:24.974Z,78.94
2023-05-05T20:47:56.654Z,79.61
2023-05-05T20:50:29.648Z,80.05
2023-05-05T20:53:01.563Z,79.47
2023-05-05T20:55:33.946Z,79.92
2023-05-05T20:58:06.731Z,80.61
2023-05-05T21:00:38.723Z,80.72
2023-05-05T21:03:10.662Z,80.84
2023-05-05T21:05:44.649Z,80.46
2023-05-05T21:08:16.427Z,82.03
2023-05-05T21:10:48.216Z,80.62
2023-05-05T21:13:20.110Z,81.78
2023-05-05T21:15:51.983Z,81.72
2023-05-05T21:18:25.709Z,81.07
2023-05-05T21:20:58.970Z,81.69
2023-05-05T21:23:31.296Z,82.68
2023-05-05T21:26:05.906Z,81.79
2023-05-05T21:28:37.564Z,81.76
2023-05-05T21:31:21.684Z,81.87
2023-05-05T21:33:54.214Z,81.87
2023-05-05T21:36:27.433Z,82.06
2023-05-05T21:39:00.483Z,82.52
2023-05-05T21:41:32.329Z,81.95
2023-05-05T21:44:04.255Z,82.60
2023-05-05T21:46:36.220Z,83.03
2023-05-05T21:49:17.377Z,83.10
2023-05-05T21:51:51.169Z,82.81
2023-05-05T21:54:23.162Z,82.70
2023-05-05T21:56:55.016Z,83.04
2023-05-05T21:59:27.132Z,82.73
2023-05-05T22:01:59.104Z,83.05
2023-05-05T22:04:30.890Z,82.48
2023-05-05T22:07:03.819Z,83.38
2023-05-05T22:09:35.697Z,83.20
2023-05-05T22:12:07.553Z,82.82
2023-05-05T22:14:39.513Z,83.23
2023-05-05T22:17:11.565Z,83.84
2023-05-05T22:19:43.180Z,83.46
2023-05-05T22:22:17.367Z,82.77
2023-05-05T22:24:49.371Z,83.02
2023-05-05T22:27:21.203Z,83.82
2023-05-05T22:29:53.028Z,83.91
2023-05-05T22:32:24.971Z,83.44
2023-05-05T22:34:56.845Z,83.25
2023-05-05T22:37:29.748Z,84.10
2023-05-05T22:40:01.643Z,85.67
2023-05-05T22:42:45.289Z,84.38
2023-05-05T22:45:19.345Z,84.85
2023-05-05T22:47:51.543Z,83.66
2023-05-05T22:50:23.599Z,83.49
2023-05-05T22:52:57.139Z,84.22
2023-05-05T22:55:28.797Z,84.30
2023-05-05T22:58:00.637Z,83.58
2023-05-05T23:00:32.366Z,82.93
2023-05-05T23:03:04.295Z,83.25
2023-05-05T23:05:36.189Z,82.94
2023-05-05T23:08:09.837Z,82.21
2023-05-05T23:10:41.691Z,83.38
2023-05-05T23:13:13.607Z,83.21
2023-05-05T23:15:45.550Z,82.29
2023-05-05T23:18:17.373Z,82.73
2023-05-05T23:20:49.362Z,82.02
2023-05-05T23:23:22.544Z,81.01
2023-05-05T23:25:54.422Z,82.60
2023-05-05T23:28:26.263Z,82.26
2023-05-05T23:30:58.254Z,82.09
2023-05-05T23:33:30.120Z,81.12
2023-05-05T23:36:01.919Z,81.32
2023-05-05T23:38:35.115Z,80.68
2023-05-05T23:41:07.036Z,81.12
2023-05-05T23:43:38.897Z,80.14
2023-05-05T23:46:10.789Z,80.22
2023-05-05T23:48:42.658Z,80.09
2023-05-05T23:51:14.463Z,79.39
2023-05-05T23:53:47.406Z,79.98
2023-05-05T23:56:19.299Z,80.21
2023-05-05T23:58:52.388Z,80.53
